Terminal Aerodrome Forecast
Issued by NWS

Home | Current Version | Previous Version | Text Only | Print | Product List | Glossary On
Versions: 1 2 3 4 5 6 7 8 9 10 11 12 13 14 15 16 17 18 19 20 21 22 23 24
000
FTUS46 KMFR 242347
TAFOTH
TAF
KOTH 242347Z 2500/2524 35023G30KT P6SM SCT010
      TEMPO 2500/2503 BKN010
     FM250300 36015G25KT P6SM OVC010
     FM250600 36010KT P6SM OVC009
     FM251200 36008KT 2SM BR BKN005 OVC009
     FM251900 35014G25KT P6SM SCT006 OVC010
     FM252100 35022G29KT P6SM BKN250=

USA.gov is the U.S. government's official web portal to all federal, state and local government web resources and services.